createdAt,value
2023-05-23T00:02:21.727Z,8.79
2023-05-23T00:04:49.791Z,8.77
2023-05-23T00:07:17.801Z,8.69
2023-05-23T00:09:45.484Z,8.67
2023-05-23T00:12:14.019Z,8.60
2023-05-23T00:14:41.904Z,8.57
2023-05-23T00:17:11.278Z,8.54
2023-05-23T00:19:39.106Z,8.41
2023-05-23T00:22:07.619Z,8.48
2023-05-23T00:24:35.391Z,8.47
2023-05-23T00:27:04.173Z,8.42
2023-05-23T00:29:32.100Z,8.42
2023-05-23T00:32:00.858Z,8.41
2023-05-23T00:34:29.057Z,8.41
2023-05-23T00:36:58.444Z,8.39
2023-05-23T00:39:26.363Z,8.35
2023-05-23T00:41:54.568Z,8.35
2023-05-23T00:44:22.948Z,8.31
2023-05-23T00:46:55.580Z,8.28
2023-05-23T00:49:24.178Z,8.25
2023-05-23T00:51:52.986Z,8.27
2023-05-23T00:54:27.558Z,8.23
2023-05-23T00:56:56.549Z,8.22
2023-05-23T00:59:27.783Z,8.19
2023-05-23T01:01:57.741Z,8.15
2023-05-23T01:04:27.281Z,8.14
2023-05-23T01:06:56.883Z,8.06
2023-05-23T01:09:26.401Z,8.05
2023-05-23T01:12:16.669Z,8.01
2023-05-23T01:15:09.213Z,7.94
2023-05-23T01:17:56.655Z,7.94
2023-05-23T01:20:50.702Z,7.90
2023-05-23T01:23:38.021Z,7.86
2023-05-23T01:26:43.332Z,7.86
2023-05-23T01:29:14.039Z,7.84
2023-05-23T01:31:47.681Z,7.87
2023-05-23T01:34:17.337Z,7.83
2023-05-23T01:36:45.327Z,7.86
2023-05-23T01:39:14.010Z,7.86
2023-05-23T01:41:41.995Z,7.85
2023-05-23T01:44:10.193Z,7.83
2023-05-23T01:46:39.812Z,7.81
2023-05-23T01:49:09.590Z,7.74
2023-05-23T01:51:37.899Z,7.75
2023-05-23T01:54:06.783Z,7.75
2023-05-23T01:56:35.565Z,7.75
2023-05-23T01:59:04.113Z,7.73
2023-05-23T02:01:32.687Z,7.73
2023-05-23T02:04:01.473Z,7.71
2023-05-23T02:06:29.320Z,7.67
2023-05-23T02:08:58.014Z,7.62
2023-05-23T02:11:27.359Z,7.54
2023-05-23T02:13:55.469Z,7.57
2023-05-23T02:16:24.012Z,7.55
2023-05-23T02:18:53.609Z,7.53
2023-05-23T02:21:21.447Z,7.52
2023-05-23T02:23:49.736Z,7.47
2023-05-23T02:26:18.729Z,7.48
2023-05-23T02:28:47.290Z,7.43
2023-05-23T02:31:17.643Z,7.47
2023-05-23T02:33:46.608Z,7.44
2023-05-23T02:36:15.335Z,7.46
2023-05-23T02:38:43.821Z,7.45
2023-05-23T02:41:12.068Z,7.43
2023-05-23T02:43:40.706Z,7.39
2023-05-23T02:46:09.068Z,7.39
2023-05-23T02:48:38.010Z,7.42
2023-05-23T02:51:07.091Z,7.43
2023-05-23T02:53:35.359Z,7.46
2023-05-23T02:56:03.520Z,7.47
2023-05-23T02:58:32.569Z,7.51
2023-05-23T03:01:00.364Z,7.54
2023-05-23T03:03:29.231Z,7.54
2023-05-23T03:05:58.714Z,7.61
2023-05-23T03:08:27.414Z,7.63
2023-05-23T03:10:56.049Z,7.63
2023-05-23T03:13:24.383Z,7.63
2023-05-23T03:15:52.104Z,7.65
2023-05-23T03:18:20.684Z,7.65
2023-05-23T03:20:48.634Z,7.70
2023-05-23T03:23:17.320Z,7.73
2023-05-23T03:25:46.750Z,7.82
2023-05-23T03:28:15.595Z,7.88
2023-05-23T03:30:43.801Z,7.95
2023-05-23T03:33:12.837Z,8.00
2023-05-23T03:35:41.045Z,8.07
2023-05-23T03:38:10.296Z,8.14
2023-05-23T03:40:38.307Z,8.29
2023-05-23T03:43:07.746Z,8.40
2023-05-23T03:45:39.519Z,8.48
2023-05-23T03:48:14.062Z,8.54
2023-05-23T03:50:44.081Z,8.68
2023-05-23T03:53:13.593Z,8.80
2023-05-23T03:55:43.147Z,8.90
2023-05-23T03:58:13.558Z,9.02
2023-05-23T04:00:44.484Z,9.20
2023-05-23T04:03:18.130Z,9.34
2023-05-23T04:05:46.835Z,9.50
2023-05-23T04:08:16.276Z,9.67
2023-05-23T04:10:44.917Z,9.81
2023-05-23T04:13:13.795Z,10.04
2023-05-23T04:15:43.301Z,10.13
2023-05-23T04:18:15.478Z,10.33
2023-05-23T04:20:44.145Z,10.49
2023-05-23T04:23:12.633Z,10.69
2023-05-23T04:25:43.521Z,10.89
2023-05-23T04:28:30.501Z,11.14
2023-05-23T04:30:59.133Z,11.34
2023-05-23T04:33:31.065Z,11.55
2023-05-23T04:35:59.598Z,11.72
2023-05-23T04:38:28.413Z,11.95
2023-05-23T04:40:58.339Z,12.19
2023-05-23T04:43:54.579Z,12.45
2023-05-23T04:46:29.181Z,12.65
2023-05-23T04:49:34.348Z,12.98
2023-05-23T04:52:02.945Z,13.27
2023-05-23T04:54:33.382Z,13.60
2023-05-23T04:57:04.831Z,14.02
2023-05-23T04:59:33.449Z,14.37
2023-05-23T05:02:01.284Z,14.79
2023-05-23T05:04:30.957Z,15.22
2023-05-23T05:06:58.874Z,15.73
2023-05-23T05:09:27.258Z,16.16
2023-05-23T05:11:55.352Z,16.75
2023-05-23T05:14:23.711Z,17.30
2023-05-23T05:16:51.748Z,17.76
2023-05-23T05:19:22.232Z,18.22
2023-05-23T05:21:50.570Z,18.54
2023-05-23T05:24:21.331Z,18.83
2023-05-23T05:26:50.260Z,19.16
2023-05-23T05:29:18.749Z,19.35
2023-05-23T05:31:47.436Z,19.31
2023-05-23T05:34:16.263Z,19.45
2023-05-23T05:36:48.823Z,19.74
2023-05-23T05:39:19.345Z,19.99
2023-05-23T05:41:47.354Z,20.16
2023-05-23T05:44:16.496Z,20.22
2023-05-23T05:46:47.127Z,20.31
2023-05-23T05:49:15.745Z,20.36
2023-05-23T05:51:45.980Z,20.46
2023-05-23T05:54:14.424Z,20.63
2023-05-23T05:56:42.652Z,20.95
2023-05-23T05:59:12.029Z,21.32
2023-05-23T06:01:41.287Z,21.45
2023-05-23T06:04:09.772Z,21.43
2023-05-23T06:06:38.205Z,21.72
2023-05-23T06:09:06.782Z,21.81
2023-05-23T06:11:40.986Z,22.21
2023-05-23T06:14:09.901Z,22.45
2023-05-23T06:16:42.515Z,22.61
2023-05-23T06:19:10.678Z,22.82
2023-05-23T06:21:41.061Z,23.01
2023-05-23T06:24:11.897Z,23.37
2023-05-23T06:26:39.730Z,23.51
2023-05-23T06:29:09.706Z,23.40
2023-05-23T06:31:37.848Z,23.30
2023-05-23T06:34:06.858Z,23.24
2023-05-23T06:36:34.611Z,22.89
2023-05-23T06:39:02.994Z,22.93
2023-05-23T06:41:31.648Z,22.96
2023-05-23T06:44:00.051Z,22.77
2023-05-23T06:46:31.471Z,22.69
2023-05-23T06:49:13.729Z,22.60
2023-05-23T06:51:44.178Z,22.57
2023-05-23T06:54:13.349Z,22.67
2023-05-23T06:56:41.435Z,22.86
2023-05-23T06:59:11.253Z,23.32
2023-05-23T07:01:40.623Z,23.66
2023-05-23T07:04:08.969Z,23.81
2023-05-23T07:06:37.409Z,23.60
2023-05-23T07:09:07.132Z,23.67
2023-05-23T07:11:36.011Z,23.97
2023-05-23T07:14:08.014Z,24.12
2023-05-23T07:16:38.579Z,23.68
2023-05-23T07:19:09.542Z,24.00
2023-05-23T07:21:43.881Z,24.18
2023-05-23T07:24:14.515Z,24.49
2023-05-23T07:26:43.025Z,24.63
2023-05-23T07:29:11.677Z,24.63
2023-05-23T07:31:39.619Z,24.26
2023-05-23T07:34:09.706Z,24.15
2023-05-23T07:36:52.061Z,23.98
2023-05-23T07:39:22.976Z,23.79
2023-05-23T07:41:52.267Z,23.74
2023-05-23T07:44:24.723Z,23.73
2023-05-23T07:46:54.192Z,24.00
2023-05-23T07:49:23.257Z,24.20
2023-05-23T07:51:51.318Z,24.46
2023-05-23T07:54:20.658Z,24.51
2023-05-23T07:56:52.664Z,24.40
2023-05-23T07:59:21.107Z,24.51
2023-05-23T08:01:51.682Z,24.34
2023-05-23T08:04:22.364Z,24.04
2023-05-23T08:09:30.939Z,23.57
2023-05-23T08:11:59.501Z,23.41
2023-05-23T08:14:49.130Z,23.65
2023-05-23T08:17:23.028Z,23.85
2023-05-23T08:19:51.230Z,23.99
2023-05-23T08:22:19.300Z,24.20
2023-05-23T08:24:47.710Z,24.11
2023-05-23T08:27:16.242Z,23.73
2023-05-23T08:29:46.840Z,23.31
2023-05-23T08:32:15.241Z,23.26
2023-05-23T08:34:44.272Z,23.24
2023-05-23T08:37:12.086Z,23.14
2023-05-23T08:39:40.396Z,23.25
2023-05-23T08:42:34.022Z,23.66
2023-05-23T08:45:02.642Z,23.71
2023-05-23T08:47:33.541Z,23.44
2023-05-23T08:50:07.003Z,23.24
2023-05-23T08:52:38.761Z,23.38
2023-05-23T08:55:09.109Z,23.34
2023-05-23T08:57:37.227Z,23.26
2023-05-23T09:00:25.429Z,23.56
2023-05-23T09:02:55.199Z,23.62
2023-05-23T09:05:42.760Z,23.85
2023-05-23T09:08:11.143Z,24.07
2023-05-23T09:10:40.978Z,23.75
2023-05-23T09:13:10.778Z,23.45
2023-05-23T09:16:02.156Z,23.25
2023-05-23T09:18:38.677Z,23.20
2023-05-23T09:21:09.434Z,23.21
2023-05-23T09:23:42.030Z,23.39
2023-05-23T09:26:13.688Z,23.33
2023-05-23T09:28:44.086Z,23.41
2023-05-23T09:31:12.660Z,23.50
2023-05-23T09:33:43.647Z,23.35
2023-05-23T09:36:12.338Z,23.35
2023-05-23T09:38:42.013Z,23.62
2023-05-23T09:41:14.542Z,23.88
2023-05-23T09:43:55.631Z,24.12
2023-05-23T09:46:24.319Z,24.10
2023-05-23T09:48:53.313Z,24.12
2023-05-23T09:51:22.865Z,24.20
2023-05-23T09:53:52.666Z,24.38
2023-05-23T09:56:21.169Z,24.29
2023-05-23T09:58:50.451Z,24.13
2023-05-23T10:01:18.816Z,24.01
2023-05-23T10:03:52.258Z,23.78
2023-05-23T10:06:28.873Z,23.75
2023-05-23T10:09:05.601Z,23.62
2023-05-23T10:11:37.016Z,23.62
2023-05-23T10:14:08.877Z,23.56
2023-05-23T10:17:10.207Z,23.61
2023-05-23T10:19:43.056Z,23.73
2023-05-23T10:22:13.048Z,23.76
2023-05-23T10:24:41.348Z,23.76
2023-05-23T10:27:09.771Z,23.52
2023-05-23T10:29:38.589Z,23.48
2023-05-23T10:32:07.906Z,23.47
2023-05-23T10:34:54.790Z,23.49
2023-05-23T10:38:00.873Z,23.47
2023-05-23T10:40:52.679Z,23.61
2023-05-23T10:43:33.687Z,23.84
2023-05-23T10:46:01.635Z,23.89
2023-05-23T10:48:30.034Z,24.01
2023-05-23T10:51:06.206Z,23.98
2023-05-23T10:53:43.355Z,23.72
2023-05-23T10:56:22.030Z,23.76
2023-05-23T10:58:55.319Z,23.99
2023-05-23T11:01:24.092Z,24.14
2023-05-23T11:03:55.729Z,24.11
2023-05-23T11:06:35.604Z,24.27
2023-05-23T11:09:17.318Z,24.36
2023-05-23T11:11:54.234Z,24.37
2023-05-23T11:14:40.447Z,24.50
2023-05-23T11:17:14.181Z,24.66
2023-05-23T11:20:08.339Z,24.46
2023-05-23T11:22:37.034Z,24.33
2023-05-23T11:25:10.707Z,23.97
2023-05-23T11:27:40.974Z,23.87
2023-05-23T11:30:14.423Z,24.03
2023-05-23T11:32:43.682Z,24.10
2023-05-23T11:35:12.525Z,23.99
2023-05-23T11:37:41.220Z,23.97
2023-05-23T11:40:31.831Z,24.01
2023-05-23T11:43:04.206Z,24.29
2023-05-23T11:45:33.046Z,24.40
2023-05-23T11:48:12.181Z,24.45
2023-05-23T11:50:48.165Z,24.65
2023-05-23T11:53:19.301Z,24.71
2023-05-23T11:55:58.686Z,24.89
2023-05-23T11:58:31.814Z,24.98
2023-05-23T12:01:07.816Z,25.05
2023-05-23T12:03:45.238Z,25.06
2023-05-23T12:06:20.622Z,24.73
2023-05-23T12:08:48.464Z,24.84
2023-05-23T12:11:17.862Z,25.05
2023-05-23T12:13:46.511Z,25.30
2023-05-23T12:16:18.188Z,25.43
2023-05-23T12:18:46.626Z,25.27
2023-05-23T12:21:14.821Z,25.14
2023-05-23T12:23:43.086Z,25.24
2023-05-23T12:26:11.848Z,25.32
2023-05-23T12:28:45.724Z,25.26
2023-05-23T12:31:26.097Z,25.26
2023-05-23T12:33:54.771Z,25.45
2023-05-23T12:36:25.427Z,25.15
2023-05-23T12:38:54.184Z,24.88
2023-05-23T12:41:22.781Z,24.65
2023-05-23T12:43:55.496Z,24.45
2023-05-23T12:46:28.119Z,24.34
2023-05-23T12:48:56.080Z,24.42
2023-05-23T12:51:24.513Z,24.38
2023-05-23T12:53:52.648Z,24.33
2023-05-23T12:56:22.731Z,24.34
2023-05-23T12:58:50.696Z,24.45
2023-05-23T13:01:19.309Z,24.71
2023-05-23T13:03:47.963Z,24.67
2023-05-23T13:06:16.589Z,24.60
2023-05-23T13:08:44.409Z,24.26
2023-05-23T13:11:13.062Z,23.96
2023-05-23T13:13:41.342Z,24.02
2023-05-23T13:16:10.196Z,24.07
2023-05-23T13:18:38.124Z,24.17
2023-05-23T13:21:06.635Z,24.19
2023-05-23T13:23:36.362Z,24.24
2023-05-23T13:26:05.080Z,24.31
2023-05-23T13:28:34.602Z,24.14
2023-05-23T13:31:03.858Z,24.12
2023-05-23T13:33:32.062Z,24.03
2023-05-23T13:36:00.744Z,23.88
2023-05-23T13:38:31.401Z,23.70
2023-05-23T13:40:59.930Z,23.70
2023-05-23T13:43:28.128Z,23.71
2023-05-23T13:45:56.330Z,23.72
2023-05-23T13:48:24.416Z,23.65
2023-05-23T13:50:53.188Z,23.55
2023-05-23T13:53:21.856Z,23.35
2023-05-23T13:55:50.091Z,23.49
2023-05-23T13:58:17.998Z,23.68
2023-05-23T14:00:46.677Z,23.73
2023-05-23T14:03:16.189Z,23.92
2023-05-23T14:05:44.710Z,24.14
2023-05-23T14:08:14.373Z,24.18
2023-05-23T14:10:43.139Z,24.11
2023-05-23T14:13:12.550Z,24.18
2023-05-23T14:15:42.862Z,24.39
2023-05-23T14:18:11.098Z,24.32
2023-05-23T14:20:39.681Z,24.32
2023-05-23T14:23:07.666Z,24.58
2023-05-23T14:25:36.184Z,24.49
2023-05-23T14:28:04.368Z,24.37
2023-05-23T14:30:32.478Z,24.02
2023-05-23T14:33:00.918Z,24.02
2023-05-23T14:35:29.844Z,24.03
2023-05-23T14:37:57.822Z,24.21
2023-05-23T14:40:26.848Z,24.08
2023-05-23T14:42:54.603Z,24.06
2023-05-23T14:45:23.378Z,24.05
2023-05-23T14:47:52.079Z,24.10
2023-05-23T14:50:20.491Z,24.14
2023-05-23T14:52:48.546Z,24.05
2023-05-23T14:55:17.155Z,23.94
2023-05-23T14:57:45.214Z,23.98
2023-05-23T15:00:14.511Z,24.05
2023-05-23T15:02:42.329Z,23.93
2023-05-23T15:05:11.287Z,23.97
2023-05-23T15:07:39.293Z,23.94
2023-05-23T15:10:08.509Z,23.72
2023-05-23T15:12:36.244Z,23.61
2023-05-23T15:15:05.070Z,23.45
2023-05-23T15:17:36.420Z,23.47
2023-05-23T15:20:07.198Z,23.47
2023-05-23T15:22:39.687Z,23.57
2023-05-23T15:25:09.028Z,23.83
2023-05-23T15:27:37.162Z,23.95
2023-05-23T15:30:06.183Z,24.04
2023-05-23T15:32:34.143Z,24.17
2023-05-23T15:35:02.831Z,24.33
2023-05-23T15:37:30.627Z,24.31
2023-05-23T15:39:58.981Z,24.29
2023-05-23T15:42:26.814Z,24.37
2023-05-23T15:44:55.274Z,24.43
2023-05-23T15:47:23.417Z,24.43
2023-05-23T15:49:51.644Z,24.42
2023-05-23T15:52:19.472Z,24.25
2023-05-23T15:54:48.067Z,24.17
2023-05-23T15:57:16.019Z,24.12
2023-05-23T15:59:44.548Z,24.10
2023-05-23T16:02:12.401Z,24.11
2023-05-23T16:04:40.845Z,24.14
2023-05-23T16:07:08.953Z,24.13
2023-05-23T16:09:37.948Z,24.03
2023-05-23T16:12:06.130Z,23.87
2023-05-23T16:14:34.412Z,23.74
2023-05-23T16:17:03.637Z,23.74
2023-05-23T16:19:32.165Z,23.75
2023-05-23T16:22:00.448Z,23.70
2023-05-23T16:24:29.134Z,23.68
2023-05-23T16:26:56.969Z,23.72
2023-05-23T16:29:25.683Z,23.70
2023-05-23T16:31:53.964Z,23.66
2023-05-23T16:34:22.210Z,23.60
2023-05-23T16:36:49.937Z,23.54
2023-05-23T16:39:18.497Z,23.56
2023-05-23T16:41:46.757Z,23.43
2023-05-23T16:44:15.175Z,23.40
2023-05-23T16:46:43.635Z,23.37
2023-05-23T16:49:11.875Z,23.33
2023-05-23T16:51:39.602Z,23.31
2023-05-23T16:54:08.918Z,23.34
2023-05-23T16:56:39.353Z,23.34
2023-05-23T16:59:08.046Z,23.16
2023-05-23T17:01:36.146Z,23.08
2023-05-23T17:04:04.882Z,22.93
2023-05-23T17:06:33.718Z,22.87
2023-05-23T17:09:02.459Z,22.88
2023-05-23T17:11:30.685Z,22.75
2023-05-23T17:13:59.145Z,22.69
2023-05-23T17:16:27.480Z,22.64
2023-05-23T17:18:55.993Z,22.46
2023-05-23T17:21:23.847Z,22.39
2023-05-23T17:23:52.393Z,22.22
2023-05-23T17:26:20.410Z,22.12
2023-05-23T17:28:49.233Z,22.01
2023-05-23T17:31:17.196Z,21.89
2023-05-23T17:33:46.793Z,21.78
2023-05-23T17:36:14.883Z,21.70
2023-05-23T17:38:43.302Z,21.61
2023-05-23T17:41:11.536Z,21.49
2023-05-23T17:43:39.758Z,21.51
2023-05-23T17:46:08.167Z,21.40
2023-05-23T17:48:46.952Z,21.28
2023-05-23T17:51:16.391Z,21.19
2023-05-23T17:53:45.214Z,21.14
2023-05-23T17:56:13.695Z,21.03
2023-05-23T17:58:44.080Z,20.94
2023-05-23T18:01:13.735Z,20.86
2023-05-23T18:03:42.847Z,20.77
2023-05-23T18:06:10.755Z,20.68
2023-05-23T18:08:39.283Z,20.55
2023-05-23T18:11:07.177Z,20.44
2023-05-23T18:13:35.687Z,20.31
2023-05-23T18:18:32.084Z,20.14
2023-05-23T18:21:00.014Z,20.04
2023-05-23T18:23:30.089Z,19.92
2023-05-23T18:25:58.316Z,19.76
2023-05-23T18:28:27.204Z,19.61
2023-05-23T18:30:55.010Z,19.53
2023-05-23T18:33:23.605Z,19.49
2023-05-23T18:35:52.029Z,19.48
2023-05-23T18:38:20.465Z,19.47
2023-05-23T18:40:48.520Z,19.45
2023-05-23T18:43:17.532Z,19.41
2023-05-23T18:45:45.973Z,19.35
2023-05-23T18:48:14.783Z,19.30
2023-05-23T18:50:42.917Z,19.25
2023-05-23T18:53:11.588Z,19.17
2023-05-23T18:55:39.778Z,19.06
2023-05-23T18:58:08.057Z,18.96
2023-05-23T19:00:36.114Z,19.04
2023-05-23T19:03:04.922Z,19.07
2023-05-23T19:05:33.304Z,19.01
2023-05-23T19:08:01.778Z,18.97
2023-05-23T19:10:29.968Z,18.94
2023-05-23T19:12:58.484Z,18.93
2023-05-23T19:15:26.411Z,18.92
2023-05-23T19:17:55.199Z,18.87
2023-05-23T19:20:23.154Z,18.90
2023-05-23T19:22:52.517Z,18.89
2023-05-23T19:25:22.194Z,18.89
2023-05-23T19:27:50.801Z,18.87
2023-05-23T19:30:19.125Z,18.86
2023-05-23T19:32:48.055Z,18.82
2023-05-23T19:35:17.047Z,18.75
2023-05-23T19:37:46.453Z,18.69
2023-05-23T19:40:15.044Z,18.65
2023-05-23T19:42:43.390Z,18.62
2023-05-23T19:45:12.120Z,18.55
2023-05-23T19:47:41.270Z,18.53
2023-05-23T19:50:15.044Z,18.47
2023-05-23T19:52:43.570Z,18.42
2023-05-23T19:55:12.025Z,18.37
2023-05-23T19:57:44.535Z,18.32
2023-05-23T20:00:15.362Z,18.23
2023-05-23T20:02:45.278Z,18.15
2023-05-23T20:05:14.057Z,18.12
2023-05-23T20:07:43.399Z,18.05
2023-05-23T20:10:11.514Z,18.01
2023-05-23T20:12:40.001Z,17.89
2023-05-23T20:15:09.271Z,17.89
2023-05-23T20:17:37.815Z,17.79
2023-05-23T20:20:06.814Z,17.81
2023-05-23T20:22:35.372Z,17.76
2023-05-23T20:25:04.570Z,17.74
2023-05-23T20:27:33.289Z,17.70
2023-05-23T20:30:01.463Z,17.64
2023-05-23T20:32:30.215Z,17.61
2023-05-23T20:34:58.234Z,17.52
2023-05-23T20:37:28.545Z,17.48
2023-05-23T20:39:56.646Z,17.47
2023-05-23T20:42:27.034Z,17.45
2023-05-23T20:44:54.758Z,17.37
2023-05-23T20:47:23.175Z,17.37
2023-05-23T20:49:51.238Z,17.34
2023-05-23T20:52:19.748Z,17.36
2023-05-23T20:54:48.568Z,17.38
2023-05-23T20:57:17.144Z,17.35
2023-05-23T20:59:46.405Z,17.37
2023-05-23T21:02:14.774Z,17.32
2023-05-23T21:04:42.812Z,17.41
2023-05-23T21:07:11.087Z,17.39
2023-05-23T21:09:39.054Z,17.32
2023-05-23T21:12:10.215Z,17.31
2023-05-23T21:14:38.422Z,17.30
2023-05-23T21:17:06.645Z,17.28
2023-05-23T21:19:34.701Z,17.22
2023-05-23T21:22:02.977Z,17.21
2023-05-23T21:24:30.764Z,17.19
2023-05-23T21:26:59.452Z,17.14
2023-05-23T21:29:27.312Z,17.13
2023-05-23T21:31:56.114Z,17.06
2023-05-23T21:34:24.651Z,17.02
2023-05-23T21:36:53.426Z,16.95
2023-05-23T21:39:22.008Z,16.90
2023-05-23T21:41:50.071Z,16.84
2023-05-23T21:44:19.020Z,16.79
2023-05-23T21:46:47.480Z,16.75
2023-05-23T21:49:15.582Z,16.72
2023-05-23T21:51:44.596Z,16.72
2023-05-23T21:54:12.534Z,16.69
2023-05-23T21:56:41.231Z,16.66
2023-05-23T21:59:09.684Z,16.65
2023-05-23T22:01:37.834Z,16.67
2023-05-23T22:04:06.313Z,16.67
2023-05-23T22:06:35.203Z,16.67
2023-05-23T22:09:05.913Z,16.70
2023-05-23T22:11:34.503Z,16.69
2023-05-23T22:14:02.706Z,16.69
2023-05-23T22:16:34.838Z,16.68
2023-05-23T22:19:05.585Z,16.70
2023-05-23T22:21:33.987Z,16.69
2023-05-23T22:24:01.962Z,16.70
2023-05-23T22:26:30.461Z,16.72
2023-05-23T22:29:00.052Z,16.74
2023-05-23T22:31:29.151Z,16.72
2023-05-23T22:33:57.102Z,16.65
2023-05-23T22:36:26.188Z,16.68
2023-05-23T22:38:53.843Z,16.58
2023-05-23T22:41:22.615Z,16.60
2023-05-23T22:43:50.323Z,16.57
2023-05-23T22:46:18.783Z,16.37
2023-05-23T22:48:46.714Z,16.40
2023-05-23T22:51:15.117Z,16.37
2023-05-23T22:53:43.949Z,16.27
2023-05-23T22:56:13.342Z,16.21
2023-05-23T22:58:40.986Z,16.10
2023-05-23T23:01:09.408Z,16.13
2023-05-23T23:03:37.161Z,16.10
2023-05-23T23:06:06.680Z,16.03
2023-05-23T23:08:34.926Z,15.95
2023-05-23T23:11:03.674Z,15.90
2023-05-23T23:13:31.872Z,15.90
2023-05-23T23:15:59.938Z,15.82
2023-05-23T23:18:27.697Z,15.88
2023-05-23T23:20:56.347Z,15.82
2023-05-23T23:23:24.370Z,15.86
2023-05-23T23:25:52.726Z,15.84
2023-05-23T23:28:24.443Z,15.76
2023-05-23T23:30:53.084Z,15.72
2023-05-23T23:33:21.079Z,15.71
2023-05-23T23:35:49.322Z,15.73
2023-05-23T23:38:17.031Z,15.83
2023-05-23T23:40:45.915Z,15.86
2023-05-23T23:43:14.391Z,15.96
2023-05-23T23:45:42.976Z,15.98
2023-05-23T23:48:11.035Z,16.01
2023-05-23T23:50:38.999Z,16.03
2023-05-23T23:53:08.325Z,16.02
2023-05-23T23:55:37.102Z,16.04
2023-05-23T23:58:05.555Z,16.02
